Pagrindinis puslapis
METAR-TAF:

METAR-TAF

Oro uostai :

Stambulas Atatiurkas, Turkija

platuma: 40-58N, ilguma: 028-49E, Aukštis: 48 m

Dabartinis oras

Ataskaita buvo paskelbta 26 minutes, ne 09:20 UTC
Vėjas 13 kt iš Šiaurės/Šiaurės Rytų
Temperatūra 16°C
Drėgmė 72%
Slėgis 1024 hPa
Matomumas 10 km arba daugiau
Išsisklaidę debesys ne aukštis 2500 ft

METAR: LTBA 270920Z 02013KT 9999 SCT025 16/11 Q1024 NOSIG RMK RWY23 03014KT 360V060

Laikas: 12:46 (09:46 UTC)

Prognozė

Ataskaita buvo paskelbta 5 valandos ir 6 minutes, ne 04:40 UTC
Prognozė galioja nuo 27 metu 06 UTC su 28 metu 12 UTC
Vėjas 11 kt iš Šiaurės Rytų
Matomumas 10 km arba daugiau
Išsisklaidę debesys ne aukštis 3500 ft
Laikinai
nuo 27 metu 11 UTC su 27 metu 15 UTC
Vėjas 15 kt iš Šiaurės Rytų su gūsio iki 27 kt
Tikimybė 40% :
Laikinai
nuo 27 metu 15 UTC su 27 metu 19 UTC
Su prošvaistėmis ne aukštis 3000 ft
lietus

TAF: LTBA 270440Z 2706/2812 04011KT 9999 SCT035 TEMPO 2711/2715 05015G27KT PROB40 TEMPO 2715/2719 -SHRA BKN030

Orai ataskaitas ir orų prognozės (METAR, TAF).

turimą stotys yra geltonos ir raudonos taškus žemėlapyje.

Perkelti pele per norėdami pamatyti stoties vardą.

Tada spustelėkite, norėdami matyti oro stebėjimo ir prognozės.

Norėdami pakeisti žemėlapį: spustelėkite ant žalios mygtukų su juodo kryžiaus žemyn,; žalią mygtuką su brūkšneliu, jei norite nutolinti; arba žalių rodyklių gretimoms žemėlapius.


METAR-TAF: